sensor_id;sensor_type;location;lat;lon;timestamp;temperature;humidity
21666;DHT22;10994;45.486;9.190;2023-03-01T00:01:24;9.30;99.90
21666;DHT22;10994;45.486;9.190;2023-03-01T00:03:51;9.40;99.90
21666;DHT22;10994;45.486;9.190;2023-03-01T00:06:18;9.00;99.90
21666;DHT22;10994;45.486;9.190;2023-03-01T00:08:44;9.00;99.90
21666;DHT22;10994;45.486;9.190;2023-03-01T00:11:14;9.00;99.90
21666;DHT22;10994;45.486;9.190;2023-03-01T00:13:40;9.00;99.90
21666;DHT22;10994;45.486;9.190;2023-03-01T00:16:09;9.00;99.90
21666;DHT22;10994;45.486;9.190;2023-03-01T00:18:35;8.80;99.90
21666;DHT22;10994;45.486;9.190;2023-03-01T00:21:01;8.90;99.90
21666;DHT22;10994;45.486;9.190;2023-03-01T00:23:27;9.00;99.90
21666;DHT22;10994;45.486;9.190;2023-03-01T00:25:53;8.60;99.90
21666;DHT22;10994;45.486;9.190;2023-03-01T00:28:19;8.70;99.90
21666;DHT22;10994;45.486;9.190;2023-03-01T00:30:45;8.80;99.90
21666;DHT22;10994;45.486;9.190;2023-03-01T00:33:11;8.70;99.90
21666;DHT22;10994;45.486;9.190;2023-03-01T00:35:37;8.60;99.90
21666;DHT22;10994;45.486;9.190;2023-03-01T00:38:04;8.80;99.90
21666;DHT22;10994;45.486;9.190;2023-03-01T00:40:33;9.00;99.90
21666;DHT22;10994;45.486;9.190;2023-03-01T00:43:00;9.00;99.90
21666;DHT22;10994;45.486;9.190;2023-03-01T00:45:27;8.90;99.90
21666;DHT22;10994;45.486;9.190;2023-03-01T00:47:52;8.70;99.90
21666;DHT22;10994;45.486;9.190;2023-03-01T00:50:19;8.80;99.90
21666;DHT22;10994;45.486;9.190;2023-03-01T00:52:45;8.90;99.90
21666;DHT22;10994;45.486;9.190;2023-03-01T00:55:11;9.00;99.90
21666;DHT22;10994;45.486;9.190;2023-03-01T00:57:37;8.60;99.90
21666;DHT22;10994;45.486;9.190;2023-03-01T01:00:05;8.60;99.90
21666;DHT22;10994;45.486;9.190;2023-03-01T01:02:33;8.80;99.90
21666;DHT22;10994;45.486;9.190;2023-03-01T01:05:00;8.90;99.90
21666;DHT22;10994;45.486;9.190;2023-03-01T01:07:26;8.90;99.90
21666;DHT22;10994;45.486;9.190;2023-03-01T01:09:51;8.90;99.90
21666;DHT22;10994;45.486;9.190;2023-03-01T01:12:17;8.90;99.90
21666;DHT22;10994;45.486;9.190;2023-03-01T01:14:43;8.80;99.90
21666;DHT22;10994;45.486;9.190;2023-03-01T01:17:08;8.80;99.90
21666;DHT22;10994;45.486;9.190;2023-03-01T01:19:34;8.40;99.90
21666;DHT22;10994;45.486;9.190;2023-03-01T01:22:00;8.50;99.90
21666;DHT22;10994;45.486;9.190;2023-03-01T01:24:25;8.20;99.90
21666;DHT22;10994;45.486;9.190;2023-03-01T01:26:51;8.20;99.90
21666;DHT22;10994;45.486;9.190;2023-03-01T01:29:17;8.10;99.90
21666;DHT22;10994;45.486;9.190;2023-03-01T01:31:43;8.10;99.90
21666;DHT22;10994;45.486;9.190;2023-03-01T01:34:14;8.10;99.90
21666;DHT22;10994;45.486;9.190;2023-03-01T01:36:40;8.40;99.90
21666;DHT22;10994;45.486;9.190;2023-03-01T01:39:06;8.40;99.90
21666;DHT22;10994;45.486;9.190;2023-03-01T01:41:32;8.20;99.90
21666;DHT22;10994;45.486;9.190;2023-03-01T01:44:20;8.30;99.90
21666;DHT22;10994;45.486;9.190;2023-03-01T01:46:54;8.50;99.90
21666;DHT22;10994;45.486;9.190;2023-03-01T01:49:35;8.50;99.90
21666;DHT22;10994;45.486;9.190;2023-03-01T01:54:53;8.70;99.90
21666;DHT22;10994;45.486;9.190;2023-03-01T01:57:23;8.80;99.90
21666;DHT22;10994;45.486;9.190;2023-03-01T01:59:53;8.70;99.90
21666;DHT22;10994;45.486;9.190;2023-03-01T02:02:20;8.70;99.90
21666;DHT22;10994;45.486;9.190;2023-03-01T02:04:47;8.80;99.90
21666;DHT22;10994;45.486;9.190;2023-03-01T02:07:17;8.80;99.90
21666;DHT22;10994;45.486;9.190;2023-03-01T02:09:51;8.90;99.90
21666;DHT22;10994;45.486;9.190;2023-03-01T02:12:20;8.90;99.90
21666;DHT22;10994;45.486;9.190;2023-03-01T02:14:47;8.70;99.90
21666;DHT22;10994;45.486;9.190;2023-03-01T02:17:15;8.60;99.90
21666;DHT22;10994;45.486;9.190;2023-03-01T02:19:59;8.60;99.90
21666;DHT22;10994;45.486;9.190;2023-03-01T02:22:30;8.70;99.90
21666;DHT22;10994;45.486;9.190;2023-03-01T02:30:19;8.90;99.90
21666;DHT22;10994;45.486;9.190;2023-03-01T02:32:46;8.90;99.90
21666;DHT22;10994;45.486;9.190;2023-03-01T02:35:14;8.80;99.90
21666;DHT22;10994;45.486;9.190;2023-03-01T02:37:42;8.90;99.90
21666;DHT22;10994;45.486;9.190;2023-03-01T02:40:12;9.00;99.90
21666;DHT22;10994;45.486;9.190;2023-03-01T02:42:51;9.00;99.90
21666;DHT22;10994;45.486;9.190;2023-03-01T02:45:19;9.00;99.90
21666;DHT22;10994;45.486;9.190;2023-03-01T02:47:44;9.10;99.90
21666;DHT22;10994;45.486;9.190;2023-03-01T02:53:00;9.10;99.90
21666;DHT22;10994;45.486;9.190;2023-03-01T02:55:27;9.00;99.90
21666;DHT22;10994;45.486;9.190;2023-03-01T02:57:53;9.00;99.90
21666;DHT22;10994;45.486;9.190;2023-03-01T03:00:26;9.00;99.90
21666;DHT22;10994;45.486;9.190;2023-03-01T03:02:54;8.90;99.90
21666;DHT22;10994;45.486;9.190;2023-03-01T03:05:28;8.90;99.90
21666;DHT22;10994;45.486;9.190;2023-03-01T03:07:57;9.00;99.90
21666;DHT22;10994;45.486;9.190;2023-03-01T03:10:27;9.00;99.90
21666;DHT22;10994;45.486;9.190;2023-03-01T03:12:56;9.00;99.90
21666;DHT22;10994;45.486;9.190;2023-03-01T03:15:22;9.00;99.90
21666;DHT22;10994;45.486;9.190;2023-03-01T03:17:49;8.70;99.90
21666;DHT22;10994;45.486;9.190;2023-03-01T03:20:17;8.70;99.90
21666;DHT22;10994;45.486;9.190;2023-03-01T03:22:48;8.80;99.90
21666;DHT22;10994;45.486;9.190;2023-03-01T03:25:18;8.80;99.90
21666;DHT22;10994;45.486;9.190;2023-03-01T03:27:45;8.80;99.90
21666;DHT22;10994;45.486;9.190;2023-03-01T03:30:14;8.80;99.90
21666;DHT22;10994;45.486;9.190;2023-03-01T03:32:41;8.80;99.90
21666;DHT22;10994;45.486;9.190;2023-03-01T03:35:09;8.90;99.90
21666;DHT22;10994;45.486;9.190;2023-03-01T03:37:41;8.90;99.90
21666;DHT22;10994;45.486;9.190;2023-03-01T03:40:26;9.00;99.90
21666;DHT22;10994;45.486;9.190;2023-03-01T03:42:52;9.00;99.90
21666;DHT22;10994;45.486;9.190;2023-03-01T03:45:18;9.00;99.90
21666;DHT22;10994;45.486;9.190;2023-03-01T03:47:44;8.90;99.90
21666;DHT22;10994;45.486;9.190;2023-03-01T03:50:14;8.60;99.90
21666;DHT22;10994;45.486;9.190;2023-03-01T03:52:41;8.30;99.90
21666;DHT22;10994;45.486;9.190;2023-03-01T03:55:09;8.10;99.90
21666;DHT22;10994;45.486;9.190;2023-03-01T03:57:35;8.20;99.90
21666;DHT22;10994;45.486;9.190;2023-03-01T04:00:01;8.00;99.90
21666;DHT22;10994;45.486;9.190;2023-03-01T09:46:03;9.00;99.90
21666;DHT22;10994;45.486;9.190;2023-03-01T09:48:41;9.20;99.90
21666;DHT22;10994;45.486;9.190;2023-03-01T09:51:14;9.20;99.90
21666;DHT22;10994;45.486;9.190;2023-03-01T09:53:42;9.30;99.90
21666;DHT22;10994;45.486;9.190;2023-03-01T12:12:58;10.90;99.90
21666;DHT22;10994;45.486;9.190;2023-03-01T12:21:24;10.80;99.90
21666;DHT22;10994;45.486;9.190;2023-03-01T12:26:58;11.00;99.90
21666;DHT22;10994;45.486;9.190;2023-03-01T12:29:48;11.00;99.90
21666;DHT22;10994;45.486;9.190;2023-03-01T12:38:25;11.00;99.90
21666;DHT22;10994;45.486;9.190;2023-03-01T12:50:04;10.60;99.90
21666;DHT22;10994;45.486;9.190;2023-03-01T12:52:40;10.50;99.90
21666;DHT22;10994;45.486;9.190;2023-03-01T12:55:27;10.50;99.90
21666;DHT22;10994;45.486;9.190;2023-03-01T13:01:15;10.80;99.90
21666;DHT22;10994;45.486;9.190;2023-03-01T13:12:00;11.10;99.90
21666;DHT22;10994;45.486;9.190;2023-03-01T13:16:52;11.00;99.90
21666;DHT22;10994;45.486;9.190;2023-03-01T13:19:23;11.10;99.90
21666;DHT22;10994;45.486;9.190;2023-03-01T13:21:50;11.00;99.90
21666;DHT22;10994;45.486;9.190;2023-03-01T13:24:41;11.20;99.90
21666;DHT22;10994;45.486;9.190;2023-03-01T18:50:30;11.70;99.90
21666;DHT22;10994;45.486;9.190;2023-03-01T18:52:57;8.10;99.90
21666;DHT22;10994;45.486;9.190;2023-03-01T18:55:23;8.00;99.90
21666;DHT22;10994;45.486;9.190;2023-03-01T18:57:49;7.80;99.90
21666;DHT22;10994;45.486;9.190;2023-03-01T19:00:15;7.90;99.90
21666;DHT22;10994;45.486;9.190;2023-03-01T19:02:43;8.10;99.90
21666;DHT22;10994;45.486;9.190;2023-03-01T19:05:08;8.20;99.90
21666;DHT22;10994;45.486;9.190;2023-03-01T19:07:34;8.20;99.90
21666;DHT22;10994;45.486;9.190;2023-03-01T19:10:00;8.30;99.90
21666;DHT22;10994;45.486;9.190;2023-03-01T19:12:25;8.30;99.90
21666;DHT22;10994;45.486;9.190;2023-03-01T19:14:53;8.20;99.90
21666;DHT22;10994;45.486;9.190;2023-03-01T19:17:23;8.10;99.90
21666;DHT22;10994;45.486;9.190;2023-03-01T19:19:55;8.20;99.90
21666;DHT22;10994;45.486;9.190;2023-03-01T19:22:21;8.00;99.90
21666;DHT22;10994;45.486;9.190;2023-03-01T19:24:46;8.10;99.90
21666;DHT22;10994;45.486;9.190;2023-03-01T19:27:12;8.20;99.90
21666;DHT22;10994;45.486;9.190;2023-03-01T19:29:38;8.20;99.90
21666;DHT22;10994;45.486;9.190;2023-03-01T19:32:03;8.20;99.90
21666;DHT22;10994;45.486;9.190;2023-03-01T19:34:29;8.10;99.90
21666;DHT22;10994;45.486;9.190;2023-03-01T19:36:55;8.10;99.90
21666;DHT22;10994;45.486;9.190;2023-03-01T19:39:21;8.30;99.90
21666;DHT22;10994;45.486;9.190;2023-03-01T19:41:47;8.00;99.90
21666;DHT22;10994;45.486;9.190;2023-03-01T19:44:12;8.30;99.90
21666;DHT22;10994;45.486;9.190;2023-03-01T19:46:38;8.50;99.90
21666;DHT22;10994;45.486;9.190;2023-03-01T19:49:05;8.30;99.90
21666;DHT22;10994;45.486;9.190;2023-03-01T19:51:31;8.30;99.90
21666;DHT22;10994;45.486;9.190;2023-03-01T19:53:59;8.40;99.90
21666;DHT22;10994;45.486;9.190;2023-03-01T19:56:26;8.40;99.90
21666;DHT22;10994;45.486;9.190;2023-03-01T19:58:52;8.00;99.90
21666;DHT22;10994;45.486;9.190;2023-03-01T20:01:25;7.50;99.90
21666;DHT22;10994;45.486;9.190;2023-03-01T22:55:37;7.40;99.90
21666;DHT22;10994;45.486;9.190;2023-03-01T22:58:03;8.60;99.90
21666;DHT22;10994;45.486;9.190;2023-03-01T23:00:28;8.60;99.90
21666;DHT22;10994;45.486;9.190;2023-03-01T23:02:54;8.40;99.90
21666;DHT22;10994;45.486;9.190;2023-03-01T23:05:20;8.40;99.90
21666;DHT22;10994;45.486;9.190;2023-03-01T23:07:46;8.30;99.90
21666;DHT22;10994;45.486;9.190;2023-03-01T23:10:13;8.40;99.90
21666;DHT22;10994;45.486;9.190;2023-03-01T23:12:39;8.40;99.90
21666;DHT22;10994;45.486;9.190;2023-03-01T23:15:05;8.50;99.90
21666;DHT22;10994;45.486;9.190;2023-03-01T23:17:31;8.30;99.90
21666;DHT22;10994;45.486;9.190;2023-03-01T23:19:57;8.20;99.90
21666;DHT22;10994;45.486;9.190;2023-03-01T23:22:22;8.10;99.90
21666;DHT22;10994;45.486;9.190;2023-03-01T23:24:48;8.10;99.90
21666;DHT22;10994;45.486;9.190;2023-03-01T23:27:14;8.10;99.90
21666;DHT22;10994;45.486;9.190;2023-03-01T23:29:43;8.30;99.90
21666;DHT22;10994;45.486;9.190;2023-03-01T23:32:10;8.40;99.90
21666;DHT22;10994;45.486;9.190;2023-03-01T23:34:36;8.50;99.90
21666;DHT22;10994;45.486;9.190;2023-03-01T23:37:02;8.40;99.90
21666;DHT22;10994;45.486;9.190;2023-03-01T23:39:29;8.20;99.90
21666;DHT22;10994;45.486;9.190;2023-03-01T23:41:55;8.20;99.90
21666;DHT22;10994;45.486;9.190;2023-03-01T23:44:21;8.40;99.90
21666;DHT22;10994;45.486;9.190;2023-03-01T23:46:48;8.50;99.90
21666;DHT22;10994;45.486;9.190;2023-03-01T23:49:19;8.50;99.90
21666;DHT22;10994;45.486;9.190;2023-03-01T23:51:45;8.40;99.90
21666;DHT22;10994;45.486;9.190;2023-03-01T23:54:20;8.40;99.90
21666;DHT22;10994;45.486;9.190;2023-03-01T23:56:46;8.30;99.90
21666;DHT22;10994;45.486;9.190;2023-03-01T23:59:22;8.20;99.90
